createdAt,value
2019-03-04T00:02:19.738Z,7.60
2019-03-04T00:04:48.913Z,7.60
2019-03-04T00:07:18.962Z,7.60
2019-03-04T00:09:47.380Z,7.60
2019-03-04T00:12:21.667Z,7.60
2019-03-04T00:14:53.638Z,7.60
2019-03-04T00:17:26.653Z,7.70
2019-03-04T00:20:01.097Z,7.70
2019-03-04T00:22:29.501Z,7.70
2019-03-04T00:25:04.161Z,7.60
2019-03-04T00:27:35.278Z,7.70
2019-03-04T00:30:10.134Z,7.70
2019-03-04T00:32:51.589Z,7.70
2019-03-04T00:35:25.099Z,7.60
2019-03-04T00:37:56.590Z,7.60
2019-03-04T00:40:30.934Z,7.60
2019-03-04T00:43:01.946Z,7.60
2019-03-04T00:45:33.862Z,7.60
2019-03-04T00:48:02.345Z,7.60
2019-03-04T00:50:35.193Z,7.60
2019-03-04T00:53:09.749Z,7.60
2019-03-04T00:55:38.193Z,7.60
2019-03-04T00:58:09.387Z,7.60
2019-03-04T01:00:38.791Z,7.60
2019-03-04T01:03:10.166Z,7.60
2019-03-04T01:05:41.253Z,7.60
2019-03-04T01:08:09.846Z,7.60
2019-03-04T01:10:38.333Z,7.60
2019-03-04T01:13:08.383Z,7.60
2019-03-04T01:15:39.256Z,7.60
2019-03-04T01:18:15.427Z,7.60
2019-03-04T01:20:41.165Z,7.60
2019-03-04T01:23:09.661Z,7.60
2019-03-04T01:25:38.406Z,7.60
2019-03-04T01:28:15.880Z,7.60
2019-03-04T01:30:47.030Z,7.60
2019-03-04T01:33:19.645Z,7.60
2019-03-04T01:35:48.063Z,7.60
2019-03-04T01:38:19.202Z,7.60
2019-03-04T01:40:49.257Z,7.60
2019-03-04T01:43:20.305Z,7.60
2019-03-04T01:45:48.737Z,7.50
2019-03-04T01:48:17.142Z,7.50
2019-03-04T01:50:55.955Z,7.50
2019-03-04T01:53:29.994Z,7.50
2019-03-04T01:56:00.445Z,7.50
2019-03-04T01:58:30.534Z,7.60
2019-03-04T02:01:08.114Z,7.60
2019-03-04T02:03:47.618Z,7.60
2019-03-04T02:06:22.242Z,7.50
2019-03-04T02:08:50.653Z,7.50
2019-03-04T02:11:30.068Z,7.40
2019-03-04T02:14:03.061Z,7.30
2019-03-04T02:16:35.185Z,7.30
2019-03-04T02:19:03.613Z,7.20
2019-03-04T02:21:36.607Z,7.10
2019-03-04T02:24:23.844Z,7.00
2019-03-04T02:26:56.145Z,6.90
2019-03-04T02:29:27.090Z,6.90
2019-03-04T02:32:06.955Z,6.90
2019-03-04T02:34:38.053Z,6.90
2019-03-04T02:37:08.882Z,6.80
2019-03-04T02:39:43.575Z,6.90
2019-03-04T02:42:15.327Z,6.90
2019-03-04T02:44:46.877Z,6.90
2019-03-04T02:47:17.808Z,6.90
2019-03-04T02:49:52.412Z,7.00
2019-03-04T02:52:25.887Z,7.00
2019-03-04T02:54:56.976Z,7.10
2019-03-04T02:57:25.395Z,7.10
2019-03-04T02:59:58.396Z,7.20
2019-03-04T03:02:33.544Z,7.20
2019-03-04T03:05:06.556Z,7.30
2019-03-04T03:07:40.314Z,7.30
2019-03-04T03:10:10.866Z,7.30
2019-03-04T03:12:45.398Z,7.40
2019-03-04T03:15:19.118Z,7.40
2019-03-04T03:20:30.831Z,7.40
2019-03-04T03:23:04.974Z,7.40
2019-03-04T03:25:39.086Z,7.30
2019-03-04T03:28:07.506Z,7.30
2019-03-04T03:30:35.923Z,7.30
2019-03-04T03:33:05.498Z,7.20
2019-03-04T03:35:35.610Z,7.30
2019-03-04T03:38:07.155Z,7.30
2019-03-04T03:40:38.123Z,7.30
2019-03-04T03:43:12.673Z,7.30
2019-03-04T03:45:41.102Z,7.30
2019-03-04T03:48:09.522Z,7.30
2019-03-04T03:50:40.656Z,7.20
2019-03-04T03:53:09.069Z,7.20
2019-03-04T03:55:43.079Z,7.10
2019-03-04T03:58:11.777Z,7.10
2019-03-04T04:00:46.339Z,7.00
2019-03-04T04:03:16.282Z,7.00
2019-03-04T04:05:56.546Z,7.00
2019-03-04T04:08:27.647Z,7.00
2019-03-04T04:10:59.051Z,7.00
2019-03-04T04:13:27.470Z,7.10
2019-03-04T04:15:55.903Z,7.10
2019-03-04T04:18:27.272Z,7.10
2019-03-04T04:21:03.564Z,7.10
2019-03-04T04:23:38.319Z,7.10
2019-03-04T04:26:24.498Z,7.10
2019-03-04T04:29:00.051Z,7.20
2019-03-04T04:31:34.503Z,7.20
2019-03-04T04:34:08.542Z,7.30
2019-03-04T04:36:36.963Z,7.30
2019-03-04T04:39:18.402Z,7.30
2019-03-04T04:41:49.433Z,7.40
2019-03-04T04:44:19.115Z,7.40
2019-03-04T04:46:53.822Z,7.40
2019-03-04T04:49:26.614Z,7.50
2019-03-04T04:51:57.905Z,7.50
2019-03-04T04:54:26.593Z,7.60
2019-03-04T04:57:00.819Z,7.70
2019-03-04T04:59:29.238Z,7.70
2019-03-04T05:01:59.575Z,7.70
2019-03-04T05:04:35.278Z,7.70
2019-03-04T05:07:03.697Z,7.80
2019-03-04T05:09:34.910Z,7.80
2019-03-04T05:12:04.975Z,7.80
2019-03-04T05:14:35.034Z,7.80
2019-03-04T05:17:09.406Z,7.90
2019-03-04T05:19:46.441Z,7.90
2019-03-04T05:22:19.493Z,7.90
2019-03-04T05:24:50.642Z,7.90
2019-03-04T05:27:22.169Z,7.90
2019-03-04T05:30:00.380Z,7.90
2019-03-04T05:32:30.629Z,7.90
2019-03-04T05:35:03.513Z,7.90
2019-03-04T05:37:32.181Z,7.90
2019-03-04T05:40:00.602Z,7.90
2019-03-04T05:42:29.024Z,7.90
2019-03-04T05:44:57.444Z,7.90
2019-03-04T05:47:27.398Z,7.90
2019-03-04T05:49:57.447Z,7.90
2019-03-04T05:52:25.938Z,7.90
2019-03-04T05:55:02.213Z,7.90
2019-03-04T05:57:33.281Z,7.90
2019-03-04T06:00:20.385Z,7.90
2019-03-04T06:03:10.803Z,7.80
2019-03-04T06:05:47.770Z,7.80
2019-03-04T06:08:15.248Z,7.80
2019-03-04T06:10:46.990Z,7.90
2019-03-04T06:13:17.055Z,8.10
2019-03-04T06:15:48.133Z,8.40
2019-03-04T06:18:19.454Z,8.90
2019-03-04T06:20:47.869Z,9.50
2019-03-04T06:23:16.297Z,10.10
2019-03-04T06:25:44.714Z,10.90
2019-03-04T06:28:20.578Z,11.70
2019-03-04T06:30:50.637Z,12.10
2019-03-04T06:33:20.698Z,11.80
2019-03-04T06:35:58.485Z,11.10
2019-03-04T06:38:26.901Z,10.50
2019-03-04T06:40:59.866Z,9.90
2019-03-04T06:43:30.963Z,9.40
2019-03-04T06:45:59.375Z,9.10
2019-03-04T06:48:30.461Z,8.80
2019-03-04T06:50:59.036Z,8.60
2019-03-04T06:53:40.498Z,8.40
2019-03-04T06:56:42.405Z,8.30
2019-03-04T06:59:15.557Z,8.20
2019-03-04T07:02:15.298Z,8.10
2019-03-04T07:04:59.468Z,8.10
2019-03-04T07:07:33.988Z,8.10
2019-03-04T07:10:02.419Z,8.00
2019-03-04T07:12:33.527Z,8.00
2019-03-04T07:15:08.609Z,8.00
2019-03-04T07:17:48.590Z,8.00
2019-03-04T07:20:21.325Z,8.00
2019-03-04T07:22:52.678Z,8.10
2019-03-04T07:25:24.098Z,8.20
2019-03-04T07:27:56.854Z,8.30
2019-03-04T07:30:30.905Z,8.50
2019-03-04T07:33:03.962Z,8.60
2019-03-04T07:35:35.337Z,8.80
2019-03-04T07:38:24.897Z,9.10
2019-03-04T07:40:53.448Z,9.30
2019-03-04T07:43:21.866Z,9.50
2019-03-04T07:45:54.366Z,9.50
2019-03-04T07:48:24.474Z,9.40
2019-03-04T07:50:53.934Z,9.40
2019-03-04T07:53:22.297Z,9.50
2019-03-04T07:56:01.794Z,9.60
2019-03-04T07:58:31.842Z,9.70
2019-03-04T08:01:04.755Z,9.70
2019-03-04T08:03:36.129Z,9.60
2019-03-04T08:06:13.786Z,9.60
2019-03-04T08:08:57.545Z,9.50
2019-03-04T08:11:34.449Z,9.40
2019-03-04T08:14:07.115Z,9.50
2019-03-04T08:16:38.301Z,9.90
2019-03-04T08:19:12.153Z,10.10
2019-03-04T08:21:43.530Z,10.40
2019-03-04T08:24:22.489Z,11.10
2019-03-04T08:26:54.474Z,12.00
2019-03-04T08:29:28.494Z,12.40
2019-03-04T08:31:58.559Z,12.10
2019-03-04T08:34:31.316Z,11.80
2019-03-04T08:37:00.011Z,11.60
2019-03-04T08:39:31.362Z,11.50
2019-03-04T08:42:05.441Z,11.40
2019-03-04T08:44:36.601Z,11.30
2019-03-04T08:47:12.853Z,11.10
2019-03-04T08:49:44.198Z,11.00
2019-03-04T08:52:15.614Z,10.80
2019-03-04T08:54:51.863Z,10.50
2019-03-04T08:57:25.934Z,10.30
2019-03-04T09:00:18.194Z,10.10
2019-03-04T09:02:48.638Z,10.00
2019-03-04T09:05:22.326Z,9.80
2019-03-04T09:07:56.293Z,9.70
2019-03-04T09:10:32.049Z,9.50
2019-03-04T09:13:03.896Z,9.40
2019-03-04T09:15:32.291Z,9.30
2019-03-04T09:18:12.657Z,9.30
2019-03-04T09:20:44.269Z,9.20
2019-03-04T09:23:12.872Z,9.10
2019-03-04T09:25:53.096Z,9.00
2019-03-04T09:28:25.883Z,9.00
2019-03-04T09:30:54.442Z,8.90
2019-03-04T09:33:22.889Z,8.80
2019-03-04T09:35:57.290Z,8.80
2019-03-04T09:38:34.255Z,8.80
2019-03-04T09:41:13.709Z,8.80
2019-03-04T09:43:44.661Z,8.80
2019-03-04T09:46:14.777Z,8.90
2019-03-04T09:48:46.937Z,8.90
2019-03-04T09:51:24.092Z,9.00
2019-03-04T09:53:46.362Z,9.00
2019-03-04T09:56:14.773Z,9.10
2019-03-04T09:58:46.197Z,9.10
2019-03-04T10:01:22.013Z,9.10
2019-03-04T10:04:09.370Z,9.20
2019-03-04T10:06:51.149Z,9.40
2019-03-04T10:09:42.489Z,9.60
2019-03-04T10:12:36.989Z,9.70
2019-03-04T10:15:11.211Z,9.60
2019-03-04T10:18:11.469Z,9.50
2019-03-04T10:20:45.989Z,9.40
2019-03-04T10:23:24.790Z,9.30
2019-03-04T10:26:21.933Z,9.20
2019-03-04T10:28:54.589Z,9.20
2019-03-04T10:31:48.758Z,9.20
2019-03-04T10:34:38.141Z,9.10
2019-03-04T10:37:45.808Z,9.10
2019-03-04T10:40:33.798Z,9.10
2019-03-04T10:43:24.570Z,9.10
2019-03-04T10:46:11.205Z,9.20
2019-03-04T10:48:39.609Z,9.20
2019-03-04T10:51:08.025Z,9.20
2019-03-04T10:53:38.154Z,9.20
2019-03-04T10:56:15.338Z,9.20
2019-03-04T10:58:49.427Z,9.20
2019-03-04T11:01:30.396Z,9.30
2019-03-04T11:03:59.839Z,9.30
2019-03-04T11:06:32.430Z,9.30
2019-03-04T11:09:02.520Z,9.30
2019-03-04T11:11:30.969Z,9.30
2019-03-04T11:14:01.034Z,9.40
2019-03-04T11:16:29.953Z,9.40
2019-03-04T11:19:01.097Z,9.40
2019-03-04T11:21:32.541Z,9.40
2019-03-04T11:24:01.117Z,9.50
2019-03-04T11:26:34.061Z,9.50
2019-03-04T11:29:05.558Z,9.60
2019-03-04T11:31:37.145Z,9.60
2019-03-04T11:34:08.020Z,9.70
2019-03-04T11:36:44.378Z,9.70
2019-03-04T11:39:22.981Z,9.60
2019-03-04T11:41:51.407Z,9.60
2019-03-04T11:44:19.899Z,9.60
2019-03-04T11:46:48.329Z,9.60
2019-03-04T11:49:19.699Z,9.70
2019-03-04T11:51:51.113Z,9.80
2019-03-04T11:54:24.391Z,9.70
2019-03-04T11:56:58.710Z,9.70
2019-03-04T11:59:27.121Z,9.60
2019-03-04T12:01:55.541Z,9.60
2019-03-04T12:04:28.502Z,9.60
2019-03-04T12:07:00.805Z,9.50
2019-03-04T12:09:29.221Z,9.50
2019-03-04T12:11:57.644Z,9.50
2019-03-04T12:14:28.486Z,9.50
2019-03-04T12:16:56.918Z,9.60
2019-03-04T12:19:32.589Z,9.70
2019-03-04T12:22:05.546Z,9.80
2019-03-04T12:24:45.258Z,9.90
2019-03-04T12:27:15.322Z,9.90
2019-03-04T12:29:48.680Z,9.90
2019-03-04T12:32:23.698Z,9.80
2019-03-04T12:34:57.623Z,9.80
2019-03-04T12:37:26.382Z,9.70
2019-03-04T12:39:56.434Z,9.70
2019-03-04T12:42:25.832Z,9.70
2019-03-04T12:44:54.241Z,9.70
2019-03-04T12:47:25.329Z,9.70
2019-03-04T12:49:56.523Z,9.80
2019-03-04T12:52:34.879Z,9.90
2019-03-04T12:55:10.042Z,9.80
2019-03-04T12:57:42.893Z,9.80
2019-03-04T13:00:18.801Z,9.80
2019-03-04T13:02:59.234Z,9.80
2019-03-04T13:05:39.622Z,9.80
2019-03-04T13:08:12.581Z,9.70
2019-03-04T13:10:42.632Z,9.60
2019-03-04T13:13:11.053Z,9.50
2019-03-04T13:15:39.469Z,9.40
2019-03-04T13:18:10.642Z,9.40
2019-03-04T13:20:50.398Z,9.40
2019-03-04T13:23:21.465Z,9.40
2019-03-04T13:26:11.639Z,9.40
2019-03-04T13:28:34.882Z,9.50
2019-03-04T13:31:10.435Z,9.50
2019-03-04T13:33:44.481Z,9.50
2019-03-04T13:36:14.537Z,9.50
2019-03-04T13:38:43.729Z,9.40
2019-03-04T13:41:13.777Z,9.40
2019-03-04T13:43:45.734Z,9.30
2019-03-04T13:46:16.841Z,9.30
2019-03-04T13:48:47.961Z,9.30
2019-03-04T13:51:16.441Z,9.30
2019-03-04T13:53:50.585Z,9.30
2019-03-04T13:56:19.002Z,9.30
2019-03-04T13:58:51.870Z,9.20
2019-03-04T14:01:25.687Z,9.20
2019-03-04T14:03:56.069Z,9.10
2019-03-04T14:06:27.145Z,9.00
2019-03-04T14:09:05.077Z,9.00
2019-03-04T14:11:33.489Z,9.00
2019-03-04T14:14:04.796Z,9.00
2019-03-04T14:16:33.226Z,8.90
2019-03-04T14:19:04.790Z,8.90
2019-03-04T14:21:33.217Z,8.80
2019-03-04T14:24:09.470Z,8.80
2019-03-04T14:26:39.530Z,8.70
2019-03-04T14:29:07.947Z,8.60
2019-03-04T14:31:44.969Z,8.60
2019-03-04T14:34:16.510Z,8.60
2019-03-04T14:36:45.347Z,8.50
2019-03-04T14:39:15.086Z,8.50
2019-03-04T14:41:45.145Z,8.50
2019-03-04T14:44:15.198Z,8.50
2019-03-04T14:46:45.261Z,8.40
2019-03-04T14:49:16.333Z,8.40
2019-03-04T14:51:56.863Z,8.40
2019-03-04T14:54:26.950Z,8.40
2019-03-04T14:57:07.778Z,8.40
2019-03-04T14:59:39.129Z,8.40
2019-03-04T15:02:09.157Z,8.40
2019-03-04T15:04:39.214Z,8.40
2019-03-04T15:07:07.763Z,8.30
2019-03-04T15:09:49.101Z,8.30
2019-03-04T15:12:12.069Z,8.30
2019-03-04T15:14:43.547Z,8.40
2019-03-04T15:17:29.077Z,8.40
2019-03-04T15:20:09.399Z,8.40
2019-03-04T15:22:37.966Z,8.50
2019-03-04T15:25:28.941Z,8.50
2019-03-04T15:28:19.335Z,8.40
2019-03-04T15:30:56.453Z,8.30
2019-03-04T15:33:24.933Z,8.30
2019-03-04T15:35:53.353Z,8.20
2019-03-04T15:38:22.587Z,8.00
2019-03-04T15:40:52.913Z,7.80
2019-03-04T15:43:22.979Z,7.50
2019-03-04T15:45:55.934Z,7.40
2019-03-04T15:48:28.470Z,7.20
2019-03-04T15:50:56.547Z,7.20
2019-03-04T15:53:31.233Z,7.10
2019-03-04T15:56:02.757Z,7.10
2019-03-04T15:58:31.184Z,7.00
2019-03-04T16:01:01.737Z,6.80
2019-03-04T16:03:31.533Z,6.80
2019-03-04T16:05:59.955Z,6.80
2019-03-04T16:08:31.373Z,6.80
2019-03-04T16:11:01.182Z,6.80
2019-03-04T16:13:29.809Z,6.80
2019-03-04T16:16:05.406Z,6.70
2019-03-04T16:18:39.549Z,6.60
2019-03-04T16:21:11.073Z,6.50
2019-03-04T16:23:39.497Z,6.50
2019-03-04T16:26:09.762Z,6.50
2019-03-04T16:28:39.820Z,6.40
2019-03-04T16:31:11.380Z,6.40
2019-03-04T16:33:48.965Z,6.40
2019-03-04T16:36:22.482Z,6.40
2019-03-04T16:38:51.102Z,6.30
2019-03-04T16:41:19.518Z,6.30
2019-03-04T16:43:49.573Z,6.20
2019-03-04T16:46:19.705Z,6.20
2019-03-04T16:48:49.773Z,6.10
2019-03-04T16:51:19.856Z,6.10
2019-03-04T16:53:54.254Z,6.10
2019-03-04T16:56:25.865Z,6.10
2019-03-04T16:58:54.286Z,6.10
2019-03-04T17:01:22.765Z,6.10
2019-03-04T17:03:58.053Z,6.10
2019-03-04T17:06:29.254Z,6.10
2019-03-04T17:08:58.986Z,6.00
2019-03-04T17:11:27.381Z,6.00
2019-03-04T17:13:55.824Z,6.00
2019-03-04T17:16:24.225Z,6.00
2019-03-04T17:18:52.657Z,6.00
2019-03-04T17:21:24.069Z,6.00
2019-03-04T17:23:56.838Z,6.00
2019-03-04T17:26:25.321Z,6.00
2019-03-04T17:28:53.742Z,6.00
2019-03-04T17:31:22.156Z,6.00
2019-03-04T17:33:50.735Z,5.90
2019-03-04T17:36:26.567Z,5.90
2019-03-04T17:38:56.589Z,5.90
2019-03-04T17:41:28.041Z,5.80
2019-03-04T17:43:58.118Z,5.70
2019-03-04T17:46:29.831Z,5.70
2019-03-04T17:48:58.573Z,5.60
2019-03-04T17:51:29.786Z,5.50
2019-03-04T17:54:01.302Z,5.40
2019-03-04T17:56:32.642Z,5.40
2019-03-04T17:59:09.945Z,5.40
2019-03-04T18:01:38.365Z,5.30
2019-03-04T18:04:18.991Z,5.30
2019-03-04T18:06:57.818Z,5.30
2019-03-04T18:09:25.225Z,5.30
2019-03-04T18:11:58.306Z,5.20
2019-03-04T18:14:26.719Z,5.20
2019-03-04T18:16:57.961Z,5.20
2019-03-04T18:19:26.365Z,5.20
2019-03-04T18:21:59.008Z,5.20
2019-03-04T18:24:33.947Z,5.20
2019-03-04T18:27:02.954Z,5.10
2019-03-04T18:29:49.338Z,5.10
2019-03-04T18:32:42.027Z,5.10
2019-03-04T18:35:43.473Z,5.10
2019-03-04T18:38:31.529Z,5.00
2019-03-04T18:41:19.422Z,4.90
2019-03-04T18:43:50.948Z,4.70
2019-03-04T18:46:50.705Z,4.30
2019-03-04T18:49:19.149Z,4.10
2019-03-04T18:51:47.789Z,3.90
2019-03-04T18:54:16.269Z,3.80
2019-03-04T18:56:45.061Z,3.70
2019-03-04T18:59:16.545Z,3.60
2019-03-04T19:01:47.894Z,3.50
2019-03-04T19:04:18.011Z,3.40
2019-03-04T19:06:46.557Z,3.30
2019-03-04T19:09:16.292Z,3.20
2019-03-04T19:11:44.745Z,3.10
2019-03-04T19:14:13.183Z,3.10
2019-03-04T19:16:42.171Z,3.10
2019-03-04T19:19:19.092Z,3.10
2019-03-04T19:21:49.430Z,3.10
2019-03-04T19:24:29.686Z,3.00
2019-03-04T19:26:58.370Z,3.00
2019-03-04T19:29:28.461Z,2.90
2019-03-04T19:31:56.967Z,2.90
2019-03-04T19:34:29.370Z,2.90
2019-03-04T19:36:59.865Z,2.80
2019-03-04T19:39:28.289Z,2.80
2019-03-04T19:41:56.701Z,2.80
2019-03-04T19:44:26.798Z,2.80
2019-03-04T19:47:01.154Z,2.70
2019-03-04T19:49:29.600Z,2.70
2019-03-04T19:51:58.123Z,2.70
2019-03-04T19:54:34.922Z,2.70
2019-03-04T19:57:00.334Z,2.70
2019-03-04T19:59:30.758Z,2.70
2019-03-04T20:02:02.250Z,2.80
2019-03-04T20:04:32.525Z,2.80
2019-03-04T20:07:03.677Z,2.80
2019-03-04T20:09:32.141Z,2.80
2019-03-04T20:12:04.942Z,2.80
2019-03-04T20:14:40.887Z,2.80
2019-03-04T20:17:13.986Z,2.80
2019-03-04T20:19:50.704Z,2.80
2019-03-04T20:22:19.133Z,2.80
2019-03-04T20:24:47.653Z,2.80
2019-03-04T20:27:20.352Z,2.80
2019-03-04T20:29:53.082Z,2.80
2019-03-04T20:32:23.930Z,2.80
2019-03-04T20:34:54.471Z,2.80
2019-03-04T20:37:24.428Z,2.80
2019-03-04T20:39:58.600Z,2.80
2019-03-04T20:42:35.569Z,2.90
2019-03-04T20:45:07.545Z,2.90
2019-03-04T20:47:37.485Z,2.90
2019-03-04T20:50:13.033Z,3.00
2019-03-04T20:52:47.653Z,3.00
2019-03-04T20:55:18.973Z,3.00
2019-03-04T20:57:48.656Z,3.00
2019-03-04T21:00:34.868Z,3.00
2019-03-04T21:03:14.997Z,3.10
2019-03-04T21:05:43.417Z,3.10
2019-03-04T21:08:23.791Z,3.10
2019-03-04T21:10:45.421Z,3.10
2019-03-04T21:13:22.239Z,3.10
2019-03-04T21:15:58.135Z,3.10
2019-03-04T21:18:28.728Z,3.10
2019-03-04T21:21:02.210Z,3.10
2019-03-04T21:23:30.623Z,3.10
2019-03-04T21:26:05.216Z,3.10
2019-03-04T21:28:52.966Z,3.10
2019-03-04T21:31:39.278Z,3.10
2019-03-04T21:34:12.397Z,3.10
2019-03-04T21:36:48.230Z,3.10
2019-03-04T21:39:29.970Z,3.10
2019-03-04T21:42:04.125Z,3.10
2019-03-04T21:45:03.747Z,3.10
2019-03-04T21:47:35.805Z,3.10
2019-03-04T21:50:12.853Z,3.10
2019-03-04T21:52:47.345Z,3.10
2019-03-04T21:55:31.103Z,3.10
2019-03-04T21:58:00.386Z,3.20
2019-03-04T22:00:33.486Z,3.20
2019-03-04T22:03:09.161Z,3.20
2019-03-04T22:05:50.167Z,3.20
2019-03-04T22:08:12.749Z,3.10
2019-03-04T22:10:42.897Z,3.10
2019-03-04T22:13:14.315Z,3.10
2019-03-04T22:15:42.725Z,3.10
2019-03-04T22:18:13.175Z,3.10
2019-03-04T22:20:42.100Z,3.10
2019-03-04T22:23:18.058Z,3.10
2019-03-04T22:25:48.155Z,3.10
2019-03-04T22:28:16.672Z,3.10
2019-03-04T22:30:46.737Z,3.10
2019-03-04T22:33:17.041Z,3.10
2019-03-04T22:35:47.064Z,3.10
2019-03-04T22:38:17.165Z,3.10
2019-03-04T22:40:45.597Z,3.10
2019-03-04T22:43:21.502Z,3.10
2019-03-04T22:45:52.564Z,3.00
2019-03-04T22:48:23.437Z,3.00
2019-03-04T22:50:51.876Z,3.00
2019-03-04T22:53:21.699Z,3.00
2019-03-04T22:55:53.898Z,3.00
2019-03-04T22:58:28.899Z,2.90
2019-03-04T23:01:00.061Z,2.90
2019-03-04T23:03:37.437Z,2.90
2019-03-04T23:06:13.582Z,3.00
2019-03-04T23:08:50.214Z,3.00
2019-03-04T23:11:18.577Z,2.90
2019-03-04T23:13:56.066Z,2.90
2019-03-04T23:16:31.825Z,2.90
2019-03-04T23:19:06.198Z,2.90
2019-03-04T23:21:37.440Z,2.90
2019-03-04T23:24:06.030Z,2.90
2019-03-04T23:26:38.750Z,2.90
2019-03-04T23:29:17.469Z,2.90
2019-03-04T23:31:48.605Z,3.00
2019-03-04T23:34:18.661Z,3.00
2019-03-04T23:36:47.358Z,3.00
2019-03-04T23:39:17.637Z,3.00
2019-03-04T23:41:48.997Z,3.00
2019-03-04T23:44:17.426Z,3.00
2019-03-04T23:46:50.729Z,3.00
2019-03-04T23:49:20.085Z,3.00
2019-03-04T23:51:48.798Z,3.00
2019-03-04T23:54:17.205Z,3.00
2019-03-04T23:56:45.942Z,3.00
2019-03-04T23:59:17.055Z,3.00
